sensor_id;sensor_type;location;lat;lon;timestamp;P1;durP1;ratioP1;P2;durP2;ratioP2
53775;SDS011;44276;49.534;6.378;2023-04-23T00:00:40;19.23;;;11.25;;
53775;SDS011;44276;49.534;6.378;2023-04-23T00:03:10;19.00;;;11.35;;
53775;SDS011;44276;49.534;6.378;2023-04-23T00:05:41;22.27;;;11.50;;
53775;SDS011;44276;49.534;6.378;2023-04-23T00:08:11;16.08;;;11.40;;
53775;SDS011;44276;49.534;6.378;2023-04-23T00:10:44;18.60;;;10.95;;
53775;SDS011;44276;49.534;6.378;2023-04-23T00:13:13;18.45;;;11.75;;
53775;SDS011;44276;49.534;6.378;2023-04-23T00:15:43;19.55;;;10.38;;
53775;SDS011;44276;49.534;6.378;2023-04-23T00:18:12;22.33;;;10.77;;
53775;SDS011;44276;49.534;6.378;2023-04-23T00:20:42;16.48;;;10.57;;
53775;SDS011;44276;49.534;6.378;2023-04-23T00:23:10;24.08;;;12.25;;
53775;SDS011;44276;49.534;6.378;2023-04-23T00:25:38;17.55;;;10.10;;
53775;SDS011;44276;49.534;6.378;2023-04-23T00:28:06;18.35;;;11.00;;
53775;SDS011;44276;49.534;6.378;2023-04-23T00:30:34;19.95;;;11.93;;
53775;SDS011;44276;49.534;6.378;2023-04-23T00:33:03;17.45;;;10.55;;
53775;SDS011;44276;49.534;6.378;2023-04-23T00:35:32;18.85;;;11.20;;
53775;SDS011;44276;49.534;6.378;2023-04-23T00:38:00;22.17;;;12.00;;
53775;SDS011;44276;49.534;6.378;2023-04-23T00:40:28;19.10;;;10.63;;
53775;SDS011;44276;49.534;6.378;2023-04-23T00:42:56;19.15;;;10.95;;
53775;SDS011;44276;49.534;6.378;2023-04-23T00:45:25;23.02;;;11.27;;
53775;SDS011;44276;49.534;6.378;2023-04-23T00:47:53;24.80;;;12.02;;
53775;SDS011;44276;49.534;6.378;2023-04-23T00:50:24;24.52;;;11.02;;
53775;SDS011;44276;49.534;6.378;2023-04-23T00:52:52;20.98;;;11.98;;
53775;SDS011;44276;49.534;6.378;2023-04-23T00:55:20;22.30;;;10.68;;
53775;SDS011;44276;49.534;6.378;2023-04-23T00:57:49;20.15;;;11.00;;
53775;SDS011;44276;49.534;6.378;2023-04-23T01:00:17;17.60;;;10.95;;
53775;SDS011;44276;49.534;6.378;2023-04-23T01:02:45;17.63;;;10.00;;
53775;SDS011;44276;49.534;6.378;2023-04-23T01:05:16;24.25;;;10.25;;
53775;SDS011;44276;49.534;6.378;2023-04-23T01:07:47;18.38;;;10.02;;
53775;SDS011;44276;49.534;6.378;2023-04-23T01:10:16;16.52;;;10.90;;
53775;SDS011;44276;49.534;6.378;2023-04-23T01:12:44;22.08;;;10.40;;
53775;SDS011;44276;49.534;6.378;2023-04-23T01:15:14;19.85;;;10.60;;
53775;SDS011;44276;49.534;6.378;2023-04-23T01:17:42;24.58;;;11.38;;
53775;SDS011;44276;49.534;6.378;2023-04-23T01:20:11;20.98;;;11.70;;
53775;SDS011;44276;49.534;6.378;2023-04-23T01:22:41;19.70;;;11.07;;
53775;SDS011;44276;49.534;6.378;2023-04-23T01:25:09;19.80;;;11.43;;
53775;SDS011;44276;49.534;6.378;2023-04-23T01:27:37;21.58;;;11.85;;
53775;SDS011;44276;49.534;6.378;2023-04-23T01:30:06;21.42;;;12.25;;
53775;SDS011;44276;49.534;6.378;2023-04-23T01:32:36;21.45;;;13.10;;
53775;SDS011;44276;49.534;6.378;2023-04-23T01:35:05;25.27;;;12.90;;
53775;SDS011;44276;49.534;6.378;2023-04-23T01:37:34;18.33;;;12.63;;
53775;SDS011;44276;49.534;6.378;2023-04-23T01:40:06;20.15;;;11.35;;
53775;SDS011;44276;49.534;6.378;2023-04-23T01:42:36;23.10;;;12.43;;
53775;SDS011;44276;49.534;6.378;2023-04-23T01:45:05;20.92;;;12.15;;
53775;SDS011;44276;49.534;6.378;2023-04-23T01:47:35;22.85;;;12.70;;
53775;SDS011;44276;49.534;6.378;2023-04-23T01:50:03;17.73;;;10.35;;
53775;SDS011;44276;49.534;6.378;2023-04-23T01:52:32;19.02;;;10.27;;
53775;SDS011;44276;49.534;6.378;2023-04-23T01:55:01;19.35;;;10.55;;
53775;SDS011;44276;49.534;6.378;2023-04-23T01:57:30;20.52;;;10.80;;
53775;SDS011;44276;49.534;6.378;2023-04-23T02:00:00;16.45;;;9.77;;
53775;SDS011;44276;49.534;6.378;2023-04-23T02:02:34;16.27;;;9.65;;
53775;SDS011;44276;49.534;6.378;2023-04-23T02:05:03;18.83;;;9.98;;
53775;SDS011;44276;49.534;6.378;2023-04-23T02:07:36;23.05;;;10.30;;
53775;SDS011;44276;49.534;6.378;2023-04-23T02:10:06;16.27;;;11.00;;
53775;SDS011;44276;49.534;6.378;2023-04-23T02:12:36;27.20;;;10.38;;
53775;SDS011;44276;49.534;6.378;2023-04-23T02:15:06;14.98;;;10.63;;
53775;SDS011;44276;49.534;6.378;2023-04-23T02:17:36;16.30;;;10.35;;
53775;SDS011;44276;49.534;6.378;2023-04-23T02:20:06;24.65;;;12.30;;
53775;SDS011;44276;49.534;6.378;2023-04-23T02:22:36;21.65;;;11.25;;
53775;SDS011;44276;49.534;6.378;2023-04-23T02:25:06;15.20;;;10.38;;
53775;SDS011;44276;49.534;6.378;2023-04-23T02:27:37;18.13;;;11.07;;
53775;SDS011;44276;49.534;6.378;2023-04-23T02:30:05;15.88;;;11.02;;
53775;SDS011;44276;49.534;6.378;2023-04-23T02:32:35;21.10;;;12.82;;
53775;SDS011;44276;49.534;6.378;2023-04-23T02:35:03;19.63;;;11.45;;
53775;SDS011;44276;49.534;6.378;2023-04-23T02:37:34;19.10;;;11.70;;
53775;SDS011;44276;49.534;6.378;2023-04-23T02:40:03;20.38;;;11.18;;
53775;SDS011;44276;49.534;6.378;2023-04-23T02:42:33;20.63;;;12.85;;
53775;SDS011;44276;49.534;6.378;2023-04-23T02:45:03;15.73;;;11.05;;
53775;SDS011;44276;49.534;6.378;2023-04-23T02:47:32;17.98;;;10.93;;
53775;SDS011;44276;49.534;6.378;2023-04-23T02:50:00;20.23;;;12.52;;
53775;SDS011;44276;49.534;6.378;2023-04-23T02:52:31;19.65;;;10.77;;
53775;SDS011;44276;49.534;6.378;2023-04-23T02:54:59;16.05;;;10.65;;
53775;SDS011;44276;49.534;6.378;2023-04-23T02:57:28;21.38;;;14.00;;
53775;SDS011;44276;49.534;6.378;2023-04-23T02:59:57;19.95;;;11.55;;
53775;SDS011;44276;49.534;6.378;2023-04-23T03:02:26;18.67;;;10.32;;
53775;SDS011;44276;49.534;6.378;2023-04-23T03:04:54;17.27;;;11.10;;
53775;SDS011;44276;49.534;6.378;2023-04-23T03:07:22;20.25;;;11.32;;
53775;SDS011;44276;49.534;6.378;2023-04-23T03:09:50;16.83;;;11.25;;
53775;SDS011;44276;49.534;6.378;2023-04-23T03:12:18;19.73;;;10.15;;
53775;SDS011;44276;49.534;6.378;2023-04-23T03:14:46;16.15;;;10.18;;
53775;SDS011;44276;49.534;6.378;2023-04-23T03:17:14;16.65;;;9.98;;
53775;SDS011;44276;49.534;6.378;2023-04-23T03:19:44;16.35;;;10.30;;
53775;SDS011;44276;49.534;6.378;2023-04-23T03:22:12;13.95;;;8.93;;
53775;SDS011;44276;49.534;6.378;2023-04-23T03:24:40;16.02;;;9.65;;
53775;SDS011;44276;49.534;6.378;2023-04-23T03:27:08;14.60;;;9.60;;
53775;SDS011;44276;49.534;6.378;2023-04-23T03:29:36;15.85;;;9.15;;
53775;SDS011;44276;49.534;6.378;2023-04-23T03:32:04;12.57;;;8.38;;
53775;SDS011;44276;49.534;6.378;2023-04-23T03:34:32;12.75;;;8.65;;
53775;SDS011;44276;49.534;6.378;2023-04-23T03:37:02;13.80;;;8.05;;
53775;SDS011;44276;49.534;6.378;2023-04-23T03:39:30;15.73;;;8.63;;
53775;SDS011;44276;49.534;6.378;2023-04-23T03:41:58;13.30;;;9.13;;
53775;SDS011;44276;49.534;6.378;2023-04-23T03:44:27;13.50;;;7.95;;
53775;SDS011;44276;49.534;6.378;2023-04-23T03:46:55;11.20;;;8.05;;
53775;SDS011;44276;49.534;6.378;2023-04-23T03:49:24;13.60;;;7.78;;
53775;SDS011;44276;49.534;6.378;2023-04-23T03:51:53;12.98;;;7.05;;
53775;SDS011;44276;49.534;6.378;2023-04-23T03:54:22;10.70;;;6.60;;
53775;SDS011;44276;49.534;6.378;2023-04-23T03:56:51;9.68;;;6.40;;
53775;SDS011;44276;49.534;6.378;2023-04-23T03:59:20;9.68;;;7.00;;
53775;SDS011;44276;49.534;6.378;2023-04-23T04:01:48;13.40;;;7.82;;
53775;SDS011;44276;49.534;6.378;2023-04-23T04:04:16;13.52;;;7.43;;
53775;SDS011;44276;49.534;6.378;2023-04-23T04:06:44;12.40;;;6.85;;
53775;SDS011;44276;49.534;6.378;2023-04-23T04:09:12;12.77;;;8.45;;
53775;SDS011;44276;49.534;6.378;2023-04-23T04:11:41;14.63;;;6.85;;
53775;SDS011;44276;49.534;6.378;2023-04-23T04:14:09;13.48;;;7.40;;
53775;SDS011;44276;49.534;6.378;2023-04-23T04:16:37;9.23;;;6.68;;
53775;SDS011;44276;49.534;6.378;2023-04-23T04:19:06;11.98;;;8.27;;
53775;SDS011;44276;49.534;6.378;2023-04-23T04:21:34;10.05;;;6.15;;
53775;SDS011;44276;49.534;6.378;2023-04-23T04:24:02;11.35;;;7.72;;
53775;SDS011;44276;49.534;6.378;2023-04-23T04:26:31;11.88;;;7.70;;
53775;SDS011;44276;49.534;6.378;2023-04-23T04:29:01;13.13;;;7.75;;
53775;SDS011;44276;49.534;6.378;2023-04-23T04:31:29;12.07;;;7.70;;
53775;SDS011;44276;49.534;6.378;2023-04-23T04:33:58;11.00;;;6.40;;
53775;SDS011;44276;49.534;6.378;2023-04-23T04:36:26;10.88;;;7.30;;
53775;SDS011;44276;49.534;6.378;2023-04-23T04:38:54;10.10;;;7.10;;
53775;SDS011;44276;49.534;6.378;2023-04-23T04:41:23;10.68;;;7.05;;
53775;SDS011;44276;49.534;6.378;2023-04-23T04:43:53;12.32;;;7.32;;
53775;SDS011;44276;49.534;6.378;2023-04-23T04:46:22;11.27;;;7.80;;
53775;SDS011;44276;49.534;6.378;2023-04-23T04:48:54;13.13;;;6.53;;
53775;SDS011;44276;49.534;6.378;2023-04-23T04:51:22;9.32;;;6.15;;
53775;SDS011;44276;49.534;6.378;2023-04-23T04:53:50;8.35;;;5.63;;
53775;SDS011;44276;49.534;6.378;2023-04-23T04:56:18;9.52;;;7.20;;
53775;SDS011;44276;49.534;6.378;2023-04-23T04:58:47;9.38;;;6.57;;
53775;SDS011;44276;49.534;6.378;2023-04-23T05:01:15;16.17;;;8.45;;
53775;SDS011;44276;49.534;6.378;2023-04-23T05:03:46;9.82;;;5.78;;
53775;SDS011;44276;49.534;6.378;2023-04-23T05:06:15;8.65;;;5.63;;
53775;SDS011;44276;49.534;6.378;2023-04-23T05:08:43;9.55;;;5.93;;
53775;SDS011;44276;49.534;6.378;2023-04-23T05:11:13;8.90;;;5.75;;
53775;SDS011;44276;49.534;6.378;2023-04-23T05:13:42;15.45;;;7.68;;
53775;SDS011;44276;49.534;6.378;2023-04-23T05:16:10;11.50;;;6.88;;
53775;SDS011;44276;49.534;6.378;2023-04-23T05:18:39;8.43;;;6.00;;
53775;SDS011;44276;49.534;6.378;2023-04-23T05:21:09;8.93;;;5.28;;
53775;SDS011;44276;49.534;6.378;2023-04-23T05:23:37;9.52;;;6.15;;
53775;SDS011;44276;49.534;6.378;2023-04-23T05:26:05;8.23;;;5.60;;
53775;SDS011;44276;49.534;6.378;2023-04-23T05:28:34;6.10;;;5.38;;
53775;SDS011;44276;49.534;6.378;2023-04-23T05:31:02;5.93;;;4.00;;
53775;SDS011;44276;49.534;6.378;2023-04-23T05:33:30;10.43;;;4.68;;
53775;SDS011;44276;49.534;6.378;2023-04-23T05:36:15;10.10;;;5.47;;
53775;SDS011;44276;49.534;6.378;2023-04-23T05:38:43;8.65;;;5.10;;
53775;SDS011;44276;49.534;6.378;2023-04-23T05:41:12;7.57;;;5.75;;
53775;SDS011;44276;49.534;6.378;2023-04-23T05:43:41;6.22;;;4.57;;
53775;SDS011;44276;49.534;6.378;2023-04-23T05:46:09;14.30;;;4.55;;
53775;SDS011;44276;49.534;6.378;2023-04-23T05:48:37;5.28;;;3.90;;
53775;SDS011;44276;49.534;6.378;2023-04-23T05:51:05;9.55;;;4.70;;
53775;SDS011;44276;49.534;6.378;2023-04-23T05:53:35;6.53;;;4.03;;
53775;SDS011;44276;49.534;6.378;2023-04-23T05:56:04;8.27;;;4.68;;
53775;SDS011;44276;49.534;6.378;2023-04-23T05:58:32;4.90;;;3.75;;
53775;SDS011;44276;49.534;6.378;2023-04-23T06:01:00;8.75;;;3.95;;
53775;SDS011;44276;49.534;6.378;2023-04-23T06:03:28;5.57;;;3.78;;
53775;SDS011;44276;49.534;6.378;2023-04-23T06:05:57;7.10;;;4.03;;
53775;SDS011;44276;49.534;6.378;2023-04-23T06:08:25;7.47;;;4.38;;
53775;SDS011;44276;49.534;6.378;2023-04-23T06:10:54;6.30;;;4.68;;
53775;SDS011;44276;49.534;6.378;2023-04-23T06:13:23;16.55;;;4.53;;
53775;SDS011;44276;49.534;6.378;2023-04-23T06:15:53;6.72;;;4.10;;
53775;SDS011;44276;49.534;6.378;2023-04-23T06:18:23;22.25;;;4.20;;
53775;SDS011;44276;49.534;6.378;2023-04-23T06:20:52;4.90;;;3.38;;
53775;SDS011;44276;49.534;6.378;2023-04-23T06:23:22;5.72;;;3.72;;
53775;SDS011;44276;49.534;6.378;2023-04-23T06:25:50;8.13;;;4.43;;
53775;SDS011;44276;49.534;6.378;2023-04-23T06:28:19;6.13;;;3.78;;
53775;SDS011;44276;49.534;6.378;2023-04-23T06:30:47;6.55;;;3.75;;
53775;SDS011;44276;49.534;6.378;2023-04-23T06:33:15;4.30;;;3.30;;
53775;SDS011;44276;49.534;6.378;2023-04-23T06:35:44;3.97;;;3.20;;
53775;SDS011;44276;49.534;6.378;2023-04-23T06:38:13;5.75;;;3.58;;
53775;SDS011;44276;49.534;6.378;2023-04-23T06:40:41;6.30;;;4.10;;
53775;SDS011;44276;49.534;6.378;2023-04-23T06:43:09;6.68;;;3.85;;
53775;SDS011;44276;49.534;6.378;2023-04-23T06:45:38;7.00;;;4.05;;
53775;SDS011;44276;49.534;6.378;2023-04-23T06:48:06;4.45;;;3.20;;
53775;SDS011;44276;49.534;6.378;2023-04-23T06:50:35;4.53;;;2.88;;
53775;SDS011;44276;49.534;6.378;2023-04-23T06:53:03;9.98;;;3.20;;
53775;SDS011;44276;49.534;6.378;2023-04-23T06:55:31;3.75;;;2.80;;
53775;SDS011;44276;49.534;6.378;2023-04-23T06:57:59;4.18;;;3.33;;
53775;SDS011;44276;49.534;6.378;2023-04-23T07:00:28;13.02;;;4.10;;
53775;SDS011;44276;49.534;6.378;2023-04-23T07:02:58;6.13;;;3.05;;
53775;SDS011;44276;49.534;6.378;2023-04-23T07:05:26;4.88;;;2.40;;
53775;SDS011;44276;49.534;6.378;2023-04-23T07:07:54;4.20;;;2.92;;
53775;SDS011;44276;49.534;6.378;2023-04-23T07:10:23;4.22;;;2.72;;
53775;SDS011;44276;49.534;6.378;2023-04-23T07:12:52;5.28;;;3.00;;
53775;SDS011;44276;49.534;6.378;2023-04-23T07:15:20;6.18;;;2.60;;
53775;SDS011;44276;49.534;6.378;2023-04-23T07:17:48;2.83;;;1.88;;
53775;SDS011;44276;49.534;6.378;2023-04-23T07:20:17;6.50;;;3.03;;
53775;SDS011;44276;49.534;6.378;2023-04-23T07:22:46;6.47;;;3.78;;
53775;SDS011;44276;49.534;6.378;2023-04-23T07:25:14;3.22;;;2.33;;
53775;SDS011;44276;49.534;6.378;2023-04-23T07:27:42;13.95;;;2.95;;
53775;SDS011;44276;49.534;6.378;2023-04-23T07:30:11;4.10;;;2.40;;
53775;SDS011;44276;49.534;6.378;2023-04-23T07:32:40;6.03;;;2.03;;
53775;SDS011;44276;49.534;6.378;2023-04-23T07:35:08;5.18;;;1.90;;
53775;SDS011;44276;49.534;6.378;2023-04-23T07:37:38;4.80;;;1.90;;
53775;SDS011;44276;49.534;6.378;2023-04-23T07:40:06;4.60;;;1.83;;
53775;SDS011;44276;49.534;6.378;2023-04-23T07:42:35;2.40;;;1.90;;
53775;SDS011;44276;49.534;6.378;2023-04-23T07:45:05;3.50;;;2.22;;
53775;SDS011;44276;49.534;6.378;2023-04-23T07:47:34;6.15;;;1.80;;
53775;SDS011;44276;49.534;6.378;2023-04-23T07:50:02;5.28;;;1.83;;
53775;SDS011;44276;49.534;6.378;2023-04-23T07:52:31;4.20;;;1.65;;
53775;SDS011;44276;49.534;6.378;2023-04-23T07:55:00;5.40;;;1.90;;
53775;SDS011;44276;49.534;6.378;2023-04-23T07:57:28;4.45;;;1.80;;
53775;SDS011;44276;49.534;6.378;2023-04-23T07:59:56;2.50;;;1.60;;
53775;SDS011;44276;49.534;6.378;2023-04-23T08:02:25;6.25;;;2.33;;
53775;SDS011;44276;49.534;6.378;2023-04-23T08:04:53;2.22;;;1.63;;
53775;SDS011;44276;49.534;6.378;2023-04-23T08:07:25;4.13;;;2.15;;
53775;SDS011;44276;49.534;6.378;2023-04-23T08:09:55;3.67;;;1.92;;
53775;SDS011;44276;49.534;6.378;2023-04-23T08:12:29;4.75;;;2.17;;
53775;SDS011;44276;49.534;6.378;2023-04-23T08:15:01;3.88;;;1.73;;
53775;SDS011;44276;49.534;6.378;2023-04-23T08:17:31;5.43;;;3.10;;
53775;SDS011;44276;49.534;6.378;2023-04-23T08:19:59;4.45;;;1.75;;
53775;SDS011;44276;49.534;6.378;2023-04-23T08:22:28;7.70;;;3.45;;
53775;SDS011;44276;49.534;6.378;2023-04-23T08:24:56;3.38;;;2.22;;
53775;SDS011;44276;49.534;6.378;2023-04-23T08:27:24;3.85;;;2.00;;
53775;SDS011;44276;49.534;6.378;2023-04-23T08:29:54;2.90;;;1.63;;
53775;SDS011;44276;49.534;6.378;2023-04-23T08:32:22;7.65;;;1.63;;
53775;SDS011;44276;49.534;6.378;2023-04-23T08:34:50;2.53;;;1.67;;
53775;SDS011;44276;49.534;6.378;2023-04-23T08:37:18;8.55;;;2.42;;
53775;SDS011;44276;49.534;6.378;2023-04-23T08:39:56;1.63;;;1.45;;
53775;SDS011;44276;49.534;6.378;2023-04-23T08:42:26;4.07;;;1.92;;
53775;SDS011;44276;49.534;6.378;2023-04-23T08:45:06;5.85;;;1.80;;
53775;SDS011;44276;49.534;6.378;2023-04-23T08:47:35;3.53;;;1.85;;
53775;SDS011;44276;49.534;6.378;2023-04-23T08:50:09;5.18;;;1.83;;
53775;SDS011;44276;49.534;6.378;2023-04-23T08:52:39;9.93;;;3.08;;
53775;SDS011;44276;49.534;6.378;2023-04-23T08:55:13;8.25;;;3.40;;
53775;SDS011;44276;49.534;6.378;2023-04-23T08:57:44;3.40;;;1.40;;
53775;SDS011;44276;49.534;6.378;2023-04-23T09:00:15;3.53;;;1.77;;
53775;SDS011;44276;49.534;6.378;2023-04-23T09:02:47;7.00;;;1.85;;
53775;SDS011;44276;49.534;6.378;2023-04-23T09:05:16;6.78;;;1.70;;
53775;SDS011;44276;49.534;6.378;2023-04-23T09:07:44;3.40;;;1.10;;
53775;SDS011;44276;49.534;6.378;2023-04-23T09:10:12;2.75;;;1.40;;
53775;SDS011;44276;49.534;6.378;2023-04-23T09:12:43;3.70;;;1.40;;
53775;SDS011;44276;49.534;6.378;2023-04-23T09:15:15;3.97;;;1.23;;
53775;SDS011;44276;49.534;6.378;2023-04-23T09:17:44;10.85;;;2.25;;
53775;SDS011;44276;49.534;6.378;2023-04-23T09:20:15;1.63;;;1.52;;
53775;SDS011;44276;49.534;6.378;2023-04-23T09:22:44;5.45;;;1.63;;
53775;SDS011;44276;49.534;6.378;2023-04-23T09:25:14;3.00;;;1.35;;
53775;SDS011;44276;49.534;6.378;2023-04-23T09:27:45;3.85;;;1.17;;
53775;SDS011;44276;49.534;6.378;2023-04-23T09:30:15;3.47;;;1.38;;
53775;SDS011;44276;49.534;6.378;2023-04-23T09:32:45;5.32;;;1.83;;
53775;SDS011;44276;49.534;6.378;2023-04-23T09:35:15;6.15;;;1.52;;
53775;SDS011;44276;49.534;6.378;2023-04-23T09:37:46;3.40;;;1.92;;
53775;SDS011;44276;49.534;6.378;2023-04-23T09:40:18;2.67;;;1.15;;
53775;SDS011;44276;49.534;6.378;2023-04-23T09:42:50;2.67;;;1.55;;
53775;SDS011;44276;49.534;6.378;2023-04-23T09:45:21;4.85;;;1.20;;
53775;SDS011;44276;49.534;6.378;2023-04-23T09:47:51;5.80;;;1.10;;
53775;SDS011;44276;49.534;6.378;2023-04-23T09:50:30;7.18;;;2.08;;
53775;SDS011;44276;49.534;6.378;2023-04-23T09:53:00;2.72;;;1.27;;
53775;SDS011;44276;49.534;6.378;2023-04-23T09:55:30;8.10;;;1.23;;
53775;SDS011;44276;49.534;6.378;2023-04-23T09:58:02;5.63;;;1.23;;
53775;SDS011;44276;49.534;6.378;2023-04-23T10:00:33;3.17;;;1.02;;
53775;SDS011;44276;49.534;6.378;2023-04-23T10:03:04;1.60;;;0.90;;
53775;SDS011;44276;49.534;6.378;2023-04-23T10:05:38;3.88;;;1.05;;
53775;SDS011;44276;49.534;6.378;2023-04-23T10:08:26;2.88;;;1.40;;
53775;SDS011;44276;49.534;6.378;2023-04-23T10:10:54;2.85;;;0.90;;
53775;SDS011;44276;49.534;6.378;2023-04-23T10:13:39;5.35;;;1.60;;
53775;SDS011;44276;49.534;6.378;2023-04-23T10:16:09;5.32;;;2.03;;
53775;SDS011;44276;49.534;6.378;2023-04-23T10:18:49;8.48;;;1.75;;
53775;SDS011;44276;49.534;6.378;2023-04-23T10:21:21;5.75;;;2.00;;
53775;SDS011;44276;49.534;6.378;2023-04-23T10:24:04;4.75;;;1.58;;
53775;SDS011;44276;49.534;6.378;2023-04-23T10:26:35;4.78;;;1.10;;
53775;SDS011;44276;49.534;6.378;2023-04-23T10:29:08;3.70;;;1.75;;
53775;SDS011;44276;49.534;6.378;2023-04-23T10:31:43;4.90;;;1.27;;
53775;SDS011;44276;49.534;6.378;2023-04-23T10:34:13;4.63;;;1.70;;
53775;SDS011;44276;49.534;6.378;2023-04-23T10:36:42;7.43;;;1.75;;
53775;SDS011;44276;49.534;6.378;2023-04-23T10:39:11;5.72;;;1.60;;
53775;SDS011;44276;49.534;6.378;2023-04-23T10:41:54;2.35;;;1.27;;
53775;SDS011;44276;49.534;6.378;2023-04-23T10:44:30;2.83;;;1.15;;
53775;SDS011;44276;49.534;6.378;2023-04-23T10:47:21;5.70;;;1.83;;
53775;SDS011;44276;49.534;6.378;2023-04-23T10:49:49;4.00;;;1.70;;
53775;SDS011;44276;49.534;6.378;2023-04-23T10:52:18;1.63;;;1.38;;
53775;SDS011;44276;49.534;6.378;2023-04-23T10:54:55;4.07;;;1.38;;
53775;SDS011;44276;49.534;6.378;2023-04-23T10:57:25;2.58;;;1.67;;
53775;SDS011;44276;49.534;6.378;2023-04-23T10:59:54;4.07;;;1.63;;
53775;SDS011;44276;49.534;6.378;2023-04-23T11:02:25;3.30;;;1.50;;
53775;SDS011;44276;49.534;6.378;2023-04-23T11:05:10;5.80;;;3.45;;
53775;SDS011;44276;49.534;6.378;2023-04-23T11:07:38;5.00;;;2.80;;
53775;SDS011;44276;49.534;6.378;2023-04-23T11:10:10;3.17;;;1.75;;
53775;SDS011;44276;49.534;6.378;2023-04-23T11:12:39;4.22;;;1.33;;
53775;SDS011;44276;49.534;6.378;2023-04-23T11:15:09;3.03;;;1.80;;
53775;SDS011;44276;49.534;6.378;2023-04-23T11:17:58;4.30;;;1.50;;
53775;SDS011;44276;49.534;6.378;2023-04-23T11:20:27;2.60;;;1.90;;
53775;SDS011;44276;49.534;6.378;2023-04-23T11:22:55;6.43;;;1.80;;
53775;SDS011;44276;49.534;6.378;2023-04-23T11:25:24;3.28;;;2.00;;
53775;SDS011;44276;49.534;6.378;2023-04-23T11:27:54;4.25;;;2.03;;
53775;SDS011;44276;49.534;6.378;2023-04-23T11:30:24;1.92;;;1.30;;
53775;SDS011;44276;49.534;6.378;2023-04-23T11:32:55;3.15;;;1.77;;
53775;SDS011;44276;49.534;6.378;2023-04-23T11:35:28;2.13;;;1.65;;
53775;SDS011;44276;49.534;6.378;2023-04-23T11:38:06;2.17;;;1.33;;
53775;SDS011;44276;49.534;6.378;2023-04-23T11:40:35;10.85;;;1.60;;
53775;SDS011;44276;49.534;6.378;2023-04-23T11:43:05;2.72;;;1.52;;
53775;SDS011;44276;49.534;6.378;2023-04-23T11:45:34;3.03;;;1.92;;
53775;SDS011;44276;49.534;6.378;2023-04-23T11:48:05;5.22;;;1.45;;
53775;SDS011;44276;49.534;6.378;2023-04-23T11:50:33;7.07;;;1.40;;
53775;SDS011;44276;49.534;6.378;2023-04-23T11:53:03;2.03;;;1.70;;
53775;SDS011;44276;49.534;6.378;2023-04-23T11:55:33;3.50;;;1.20;;
53775;SDS011;44276;49.534;6.378;2023-04-23T11:58:01;2.35;;;1.35;;
53775;SDS011;44276;49.534;6.378;2023-04-23T12:00:29;3.00;;;1.55;;
53775;SDS011;44276;49.534;6.378;2023-04-23T12:02:58;2.65;;;1.45;;
53775;SDS011;44276;49.534;6.378;2023-04-23T12:05:30;2.88;;;1.70;;
53775;SDS011;44276;49.534;6.378;2023-04-23T12:08:06;3.58;;;1.80;;
53775;SDS011;44276;49.534;6.378;2023-04-23T12:10:42;3.42;;;1.88;;
53775;SDS011;44276;49.534;6.378;2023-04-23T12:13:13;2.40;;;1.60;;
53775;SDS011;44276;49.534;6.378;2023-04-23T12:15:43;4.10;;;1.83;;
53775;SDS011;44276;49.534;6.378;2023-04-23T12:18:16;3.42;;;1.63;;
53775;SDS011;44276;49.534;6.378;2023-04-23T12:20:46;1.80;;;1.45;;
53775;SDS011;44276;49.534;6.378;2023-04-23T12:23:14;2.53;;;2.17;;
53775;SDS011;44276;49.534;6.378;2023-04-23T12:25:42;1.50;;;1.23;;
53775;SDS011;44276;49.534;6.378;2023-04-23T12:28:10;3.78;;;1.83;;
53775;SDS011;44276;49.534;6.378;2023-04-23T12:30:41;2.40;;;1.42;;
53775;SDS011;44276;49.534;6.378;2023-04-23T12:33:11;1.98;;;1.45;;
53775;SDS011;44276;49.534;6.378;2023-04-23T12:35:40;2.15;;;1.35;;
53775;SDS011;44276;49.534;6.378;2023-04-23T12:38:21;3.97;;;1.80;;
53775;SDS011;44276;49.534;6.378;2023-04-23T12:40:50;2.55;;;1.02;;
53775;SDS011;44276;49.534;6.378;2023-04-23T12:43:18;1.67;;;1.05;;
53775;SDS011;44276;49.534;6.378;2023-04-23T12:45:47;1.02;;;0.77;;
53775;SDS011;44276;49.534;6.378;2023-04-23T12:48:16;2.28;;;1.45;;
53775;SDS011;44276;49.534;6.378;2023-04-23T12:50:45;1.13;;;0.80;;
53775;SDS011;44276;49.534;6.378;2023-04-23T12:53:13;1.80;;;1.13;;
53775;SDS011;44276;49.534;6.378;2023-04-23T12:55:43;2.38;;;0.95;;
53775;SDS011;44276;49.534;6.378;2023-04-23T12:58:11;1.23;;;0.60;;
53775;SDS011;44276;49.534;6.378;2023-04-23T13:00:39;2.53;;;0.43;;
53775;SDS011;44276;49.534;6.378;2023-04-23T13:03:07;2.60;;;0.70;;
53775;SDS011;44276;49.534;6.378;2023-04-23T13:05:39;4.63;;;1.15;;
53775;SDS011;44276;49.534;6.378;2023-04-23T13:08:07;1.20;;;0.80;;
53775;SDS011;44276;49.534;6.378;2023-04-23T13:10:35;1.25;;;0.65;;
53775;SDS011;44276;49.534;6.378;2023-04-23T13:13:05;1.55;;;0.70;;
53775;SDS011;44276;49.534;6.378;2023-04-23T13:15:33;1.77;;;1.10;;
53775;SDS011;44276;49.534;6.378;2023-04-23T13:18:01;3.47;;;1.80;;
53775;SDS011;44276;49.534;6.378;2023-04-23T13:20:29;5.50;;;3.53;;
53775;SDS011;44276;49.534;6.378;2023-04-23T13:22:57;5.78;;;2.03;;
53775;SDS011;44276;49.534;6.378;2023-04-23T13:25:26;1.75;;;1.33;;
53775;SDS011;44276;49.534;6.378;2023-04-23T13:27:55;1.55;;;0.90;;
53775;SDS011;44276;49.534;6.378;2023-04-23T13:30:24;3.78;;;2.40;;
53775;SDS011;44276;49.534;6.378;2023-04-23T13:32:52;1.58;;;1.27;;
53775;SDS011;44276;49.534;6.378;2023-04-23T13:35:22;2.50;;;2.20;;
53775;SDS011;44276;49.534;6.378;2023-04-23T13:37:50;1.73;;;1.25;;
53775;SDS011;44276;49.534;6.378;2023-04-23T13:40:18;3.45;;;1.38;;
53775;SDS011;44276;49.534;6.378;2023-04-23T13:42:47;1.80;;;0.95;;
53775;SDS011;44276;49.534;6.378;2023-04-23T13:45:16;1.90;;;1.30;;
53775;SDS011;44276;49.534;6.378;2023-04-23T13:47:46;2.55;;;1.25;;
53775;SDS011;44276;49.534;6.378;2023-04-23T13:50:14;3.03;;;1.30;;
53775;SDS011;44276;49.534;6.378;2023-04-23T13:52:42;2.42;;;1.50;;
53775;SDS011;44276;49.534;6.378;2023-04-23T13:55:10;2.15;;;1.67;;
53775;SDS011;44276;49.534;6.378;2023-04-23T13:57:39;4.20;;;1.33;;
53775;SDS011;44276;49.534;6.378;2023-04-23T14:00:07;7.18;;;1.05;;
53775;SDS011;44276;49.534;6.378;2023-04-23T14:02:38;1.27;;;0.80;;
53775;SDS011;44276;49.534;6.378;2023-04-23T14:05:08;4.90;;;1.33;;
53775;SDS011;44276;49.534;6.378;2023-04-23T14:07:37;3.40;;;1.20;;
53775;SDS011;44276;49.534;6.378;2023-04-23T14:10:05;1.60;;;0.95;;
53775;SDS011;44276;49.534;6.378;2023-04-23T14:12:34;2.72;;;1.20;;
53775;SDS011;44276;49.534;6.378;2023-04-23T14:15:04;2.65;;;1.70;;
53775;SDS011;44276;49.534;6.378;2023-04-23T14:17:34;1.63;;;0.98;;
53775;SDS011;44276;49.534;6.378;2023-04-23T14:20:07;2.67;;;1.30;;
53775;SDS011;44276;49.534;6.378;2023-04-23T14:22:37;1.38;;;1.02;;
53775;SDS011;44276;49.534;6.378;2023-04-23T14:25:07;2.22;;;1.23;;
53775;SDS011;44276;49.534;6.378;2023-04-23T14:27:43;1.60;;;1.10;;
53775;SDS011;44276;49.534;6.378;2023-04-23T14:30:17;1.45;;;0.65;;
53775;SDS011;44276;49.534;6.378;2023-04-23T14:32:50;4.25;;;2.58;;
53775;SDS011;44276;49.534;6.378;2023-04-23T14:35:21;2.03;;;1.08;;
53775;SDS011;44276;49.534;6.378;2023-04-23T14:38:08;1.48;;;0.90;;
53775;SDS011;44276;49.534;6.378;2023-04-23T14:40:36;2.55;;;1.55;;
53775;SDS011;44276;49.534;6.378;2023-04-23T14:43:04;1.92;;;0.98;;
53775;SDS011;44276;49.534;6.378;2023-04-23T14:45:41;1.65;;;0.88;;
53775;SDS011;44276;49.534;6.378;2023-04-23T14:48:09;1.45;;;1.00;;
53775;SDS011;44276;49.534;6.378;2023-04-23T14:50:38;1.55;;;0.85;;
53775;SDS011;44276;49.534;6.378;2023-04-23T14:53:06;2.70;;;1.33;;
53775;SDS011;44276;49.534;6.378;2023-04-23T14:55:35;2.63;;;1.17;;